createdAt,value
2018-05-15T00:00:03.299Z,20.29
2018-05-15T00:01:03.465Z,20.41
2018-05-15T00:02:03.645Z,20.39
2018-05-15T00:03:03.819Z,20.52
2018-05-15T00:04:03.988Z,20.47
2018-05-15T00:05:04.885Z,20.50
2018-05-15T00:06:04.324Z,20.33
2018-05-15T00:07:04.502Z,20.36
2018-05-15T00:08:04.672Z,20.32
2018-05-15T00:09:04.857Z,20.38
2018-05-15T00:10:05.029Z,20.33
2018-05-15T00:11:05.201Z,20.33
2018-05-15T00:12:05.376Z,20.29
2018-05-15T00:13:05.549Z,20.23
2018-05-15T00:14:05.719Z,20.24
2018-05-15T00:15:05.889Z,20.17
2018-05-15T00:16:06.065Z,20.13
2018-05-15T00:17:06.240Z,20.17
2018-05-15T00:18:06.409Z,20.28
2018-05-15T00:19:06.587Z,20.32
2018-05-15T00:20:06.758Z,20.17
2018-05-15T00:21:06.933Z,20.14
2018-05-15T00:22:07.105Z,20.17
2018-05-15T00:23:07.273Z,20.18
2018-05-15T00:24:07.445Z,20.10
2018-05-15T00:25:07.617Z,20.20
2018-05-15T00:26:07.785Z,20.14
2018-05-15T00:27:07.956Z,20.26
2018-05-15T00:28:08.186Z,20.13
2018-05-15T00:29:08.323Z,20.14
2018-05-15T00:30:08.495Z,20.06
2018-05-15T00:31:08.702Z,20.05
2018-05-15T00:32:08.829Z,20.02
2018-05-15T00:33:09.002Z,19.94
2018-05-15T00:34:09.200Z,19.98
2018-05-15T00:35:09.357Z,19.95
2018-05-15T00:36:09.526Z,19.87
2018-05-15T00:37:09.705Z,19.91
2018-05-15T00:38:09.874Z,19.84
2018-05-15T00:39:10.042Z,19.86
2018-05-15T00:40:10.211Z,19.83
2018-05-15T00:41:10.375Z,19.76
2018-05-15T00:42:10.547Z,19.81
2018-05-15T00:43:10.722Z,19.78
2018-05-15T00:44:10.902Z,19.86
2018-05-15T00:45:11.058Z,19.94
2018-05-15T00:46:11.226Z,19.91
2018-05-15T00:47:11.398Z,19.81
2018-05-15T00:48:11.569Z,19.86
2018-05-15T00:49:11.739Z,19.83
2018-05-15T00:50:11.907Z,19.74
2018-05-15T00:51:12.078Z,19.83
2018-05-15T00:52:12.247Z,19.78
2018-05-15T00:53:12.412Z,19.80
2018-05-15T00:54:12.582Z,19.77
2018-05-15T00:55:12.751Z,19.87
2018-05-15T00:56:12.928Z,19.83
2018-05-15T00:57:13.098Z,19.86
2018-05-15T00:58:13.260Z,19.76
2018-05-15T00:59:13.440Z,19.71
2018-05-15T01:00:13.609Z,19.65
2018-05-15T01:01:13.777Z,19.66
2018-05-15T01:02:13.948Z,19.74
2018-05-15T01:03:14.115Z,19.61
2018-05-15T01:04:14.291Z,19.59
2018-05-15T01:05:14.456Z,19.59
2018-05-15T01:06:14.628Z,19.62
2018-05-15T01:07:14.794Z,19.62
2018-05-15T01:08:14.964Z,19.55
2018-05-15T01:09:15.144Z,19.56
2018-05-15T01:10:15.309Z,19.47
2018-05-15T01:11:15.475Z,19.46
2018-05-15T01:12:15.647Z,19.50
2018-05-15T01:13:15.814Z,19.48
2018-05-15T01:14:16.031Z,19.43
2018-05-15T01:15:16.147Z,19.47
2018-05-15T01:16:16.320Z,19.47
2018-05-15T01:17:16.486Z,19.46
2018-05-15T01:18:16.657Z,19.51
2018-05-15T01:19:16.828Z,19.31
2018-05-15T01:20:16.994Z,19.31
2018-05-15T01:21:17.172Z,19.26
2018-05-15T01:22:17.336Z,19.26
2018-05-15T01:23:17.512Z,19.28
2018-05-15T01:24:17.677Z,19.28
2018-05-15T01:25:17.851Z,19.31
2018-05-15T01:26:18.023Z,19.40
2018-05-15T01:27:18.185Z,19.40
2018-05-15T01:28:18.355Z,19.31
2018-05-15T01:29:18.529Z,19.39
2018-05-15T01:30:18.695Z,19.36
2018-05-15T01:31:18.877Z,19.39
2018-05-15T01:32:19.051Z,19.33
2018-05-15T01:33:19.216Z,19.28
2018-05-15T01:34:19.379Z,19.26
2018-05-15T01:35:19.548Z,19.31
2018-05-15T01:36:19.723Z,19.26
2018-05-15T01:37:19.890Z,19.26
2018-05-15T01:38:20.084Z,19.25
2018-05-15T01:39:20.224Z,19.31
2018-05-15T01:40:20.906Z,19.23
2018-05-15T01:41:21.402Z,19.18
2018-05-15T01:42:20.814Z,19.29
2018-05-15T01:43:21.280Z,19.21
2018-05-15T01:44:21.613Z,19.04
2018-05-15T01:45:21.760Z,19.08
2018-05-15T01:46:21.917Z,19.06
2018-05-15T01:47:22.068Z,18.94
2018-05-15T01:48:22.292Z,19.06
2018-05-15T01:49:22.424Z,19.07
2018-05-15T01:50:22.571Z,19.16
2018-05-15T01:51:22.752Z,19.04
2018-05-15T01:52:22.509Z,18.92
2018-05-15T01:53:22.675Z,19.06
2018-05-15T01:54:22.846Z,19.04
2018-05-15T01:55:23.015Z,19.08
2018-05-15T01:56:23.190Z,18.92
2018-05-15T01:57:23.359Z,18.94
2018-05-15T01:58:23.527Z,19.02
2018-05-15T01:59:23.712Z,19.02
2018-05-15T02:00:24.422Z,19.08
2018-05-15T02:01:24.102Z,19.06
2018-05-15T02:02:24.909Z,18.87
2018-05-15T02:03:24.436Z,18.99
2018-05-15T02:04:24.625Z,18.88
2018-05-15T02:05:24.798Z,19.10
2018-05-15T02:06:24.974Z,19.08
2018-05-15T02:07:25.129Z,19.07
2018-05-15T02:08:25.296Z,19.16
2018-05-15T02:09:25.464Z,19.07
2018-05-15T02:10:25.638Z,19.11
2018-05-15T02:11:25.804Z,19.06
2018-05-15T02:12:25.982Z,18.91
2018-05-15T02:13:26.149Z,18.95
2018-05-15T02:14:26.312Z,18.99
2018-05-15T02:15:26.483Z,18.90
2018-05-15T02:16:26.653Z,18.90
2018-05-15T02:17:26.822Z,18.95
2018-05-15T02:18:27.064Z,18.81
2018-05-15T02:19:27.115Z,18.76
2018-05-15T02:20:27.284Z,18.76
2018-05-15T02:21:27.455Z,18.85
2018-05-15T02:22:27.622Z,18.84
2018-05-15T02:23:27.790Z,18.78
2018-05-15T02:24:27.960Z,18.67
2018-05-15T02:25:28.125Z,18.67
2018-05-15T02:26:28.299Z,18.70
2018-05-15T02:27:28.465Z,18.73
2018-05-15T02:28:28.629Z,18.75
2018-05-15T02:29:28.787Z,18.80
2018-05-15T02:30:29.074Z,18.76
2018-05-15T02:31:29.139Z,18.75
2018-05-15T02:32:29.304Z,18.67
2018-05-15T02:33:29.471Z,18.63
2018-05-15T02:34:29.644Z,18.58
2018-05-15T02:35:29.809Z,18.45
2018-05-15T02:36:29.999Z,18.42
2018-05-15T02:37:30.145Z,18.50
2018-05-15T02:38:30.316Z,18.50
2018-05-15T02:39:30.485Z,18.63
2018-05-15T02:40:30.649Z,18.58
2018-05-15T02:41:30.847Z,18.60
2018-05-15T02:42:31.012Z,18.57
2018-05-15T02:43:31.178Z,18.52
2018-05-15T02:44:31.344Z,18.54
2018-05-15T02:45:31.514Z,18.63
2018-05-15T02:46:31.699Z,18.55
2018-05-15T02:47:31.856Z,18.57
2018-05-15T02:48:32.020Z,18.60
2018-05-15T02:49:32.189Z,18.55
2018-05-15T02:50:32.356Z,18.51
2018-05-15T02:51:32.529Z,18.52
2018-05-15T02:52:32.696Z,18.51
2018-05-15T02:53:32.887Z,18.39
2018-05-15T02:54:33.032Z,18.52
2018-05-15T02:55:33.209Z,18.63
2018-05-15T02:56:33.377Z,18.62
2018-05-15T02:57:33.545Z,18.50
2018-05-15T02:58:33.726Z,18.52
2018-05-15T02:59:33.881Z,18.60
2018-05-15T03:00:34.049Z,18.57
2018-05-15T03:01:34.227Z,18.60
2018-05-15T03:02:34.394Z,18.70
2018-05-15T03:03:34.571Z,18.62
2018-05-15T03:04:34.734Z,18.76
2018-05-15T03:05:34.902Z,18.76
2018-05-15T03:06:35.088Z,18.88
2018-05-15T03:07:35.256Z,18.98
2018-05-15T03:08:35.421Z,19.06
2018-05-15T03:09:35.589Z,19.18
2018-05-15T03:10:35.760Z,19.16
2018-05-15T03:11:35.983Z,19.23
2018-05-15T03:12:36.095Z,19.29
2018-05-15T03:13:36.267Z,19.39
2018-05-15T03:14:36.479Z,19.33
2018-05-15T03:15:36.618Z,19.25
2018-05-15T03:16:36.784Z,19.33
2018-05-15T03:17:36.957Z,19.29
2018-05-15T03:18:37.140Z,19.36
2018-05-15T03:19:37.298Z,19.33
2018-05-15T03:20:37.468Z,19.33
2018-05-15T03:21:37.636Z,19.28
2018-05-15T03:22:37.799Z,19.40
2018-05-15T03:23:37.979Z,19.28
2018-05-15T03:24:38.151Z,19.29
2018-05-15T03:25:38.322Z,19.28
2018-05-15T03:26:38.489Z,19.19
2018-05-15T03:27:38.662Z,19.07
2018-05-15T03:28:38.832Z,19.14
2018-05-15T03:29:38.996Z,18.88
2018-05-15T03:30:39.167Z,19.08
2018-05-15T03:31:39.336Z,18.92
2018-05-15T03:32:39.508Z,18.88
2018-05-15T03:33:39.678Z,19.02
2018-05-15T03:34:39.850Z,19.08
2018-05-15T03:35:40.017Z,19.07
2018-05-15T03:36:40.185Z,19.11
2018-05-15T03:37:40.351Z,19.21
2018-05-15T03:38:40.531Z,19.21
2018-05-15T03:39:40.701Z,19.19
2018-05-15T03:40:40.869Z,19.21
2018-05-15T03:41:41.037Z,19.07
2018-05-15T03:42:41.202Z,18.92
2018-05-15T03:43:41.374Z,18.90
2018-05-15T03:44:41.547Z,18.85
2018-05-15T03:45:41.717Z,18.81
2018-05-15T03:46:41.882Z,18.75
2018-05-15T03:47:42.050Z,18.76
2018-05-15T03:48:42.220Z,18.66
2018-05-15T03:49:42.390Z,18.66
2018-05-15T03:50:42.557Z,18.72
2018-05-15T03:51:42.730Z,18.73
2018-05-15T03:52:42.898Z,18.76
2018-05-15T03:53:43.093Z,18.82
2018-05-15T03:54:43.259Z,18.67
2018-05-15T03:55:43.427Z,18.70
2018-05-15T03:56:43.598Z,18.69
2018-05-15T03:57:43.814Z,18.87
2018-05-15T03:58:43.987Z,18.87
2018-05-15T03:59:44.151Z,18.81
2018-05-15T04:00:44.319Z,18.81
2018-05-15T04:01:44.497Z,18.80
2018-05-15T04:02:44.666Z,18.78
2018-05-15T04:03:44.838Z,18.62
2018-05-15T04:04:45.009Z,18.70
2018-05-15T04:05:45.178Z,18.69
2018-05-15T04:06:45.347Z,18.76
2018-05-15T04:07:45.517Z,18.72
2018-05-15T04:08:45.792Z,18.67
2018-05-15T04:09:45.865Z,18.48
2018-05-15T04:10:46.074Z,18.55
2018-05-15T04:11:46.198Z,18.55
2018-05-15T04:12:46.368Z,18.66
2018-05-15T04:13:46.534Z,18.63
2018-05-15T04:14:46.708Z,18.62
2018-05-15T04:15:46.881Z,18.67
2018-05-15T04:16:47.049Z,18.73
2018-05-15T04:17:47.226Z,18.66
2018-05-15T04:18:47.377Z,18.75
2018-05-15T04:19:47.542Z,18.66
2018-05-15T04:20:47.702Z,18.69
2018-05-15T04:21:47.878Z,18.73
2018-05-15T04:22:48.051Z,18.67
2018-05-15T04:23:48.226Z,18.70
2018-05-15T04:24:48.381Z,18.76
2018-05-15T04:25:48.566Z,18.70
2018-05-15T04:26:48.739Z,18.72
2018-05-15T04:27:48.909Z,18.69
2018-05-15T04:28:49.102Z,18.57
2018-05-15T04:29:49.291Z,18.58
2018-05-15T04:30:49.446Z,18.57
2018-05-15T04:31:49.611Z,18.45
2018-05-15T04:32:49.778Z,18.36
2018-05-15T04:33:49.946Z,18.45
2018-05-15T04:34:50.118Z,18.41
2018-05-15T04:35:50.282Z,18.45
2018-05-15T04:36:50.452Z,18.63
2018-05-15T04:37:50.618Z,18.58
2018-05-15T04:38:50.790Z,18.72
2018-05-15T04:39:50.966Z,18.62
2018-05-15T04:40:51.145Z,18.72
2018-05-15T04:41:51.317Z,18.70
2018-05-15T04:42:51.485Z,18.84
2018-05-15T04:43:51.819Z,18.85
2018-05-15T04:44:51.829Z,18.87
2018-05-15T04:45:51.988Z,18.76
2018-05-15T04:46:52.161Z,18.76
2018-05-15T04:47:52.330Z,18.72
2018-05-15T04:48:52.500Z,18.78
2018-05-15T04:49:52.669Z,18.69
2018-05-15T04:50:52.841Z,18.70
2018-05-15T04:51:53.008Z,18.76
2018-05-15T04:52:53.178Z,18.75
2018-05-15T04:53:53.351Z,18.85
2018-05-15T04:54:53.517Z,18.87
2018-05-15T04:55:53.683Z,18.88
2018-05-15T04:56:53.860Z,18.92
2018-05-15T04:57:54.041Z,19.04
2018-05-15T04:58:54.211Z,18.99
2018-05-15T04:59:54.381Z,19.00
2018-05-15T05:00:54.558Z,18.98
2018-05-15T05:01:54.735Z,18.98
2018-05-15T05:02:54.907Z,19.06
2018-05-15T05:03:55.078Z,18.95
2018-05-15T05:04:55.239Z,18.84
2018-05-15T05:05:55.408Z,18.88
2018-05-15T05:06:55.591Z,18.91
2018-05-15T05:07:55.739Z,18.99
2018-05-15T05:08:55.912Z,18.95
2018-05-15T05:09:56.127Z,18.90
2018-05-15T05:10:56.302Z,18.87
2018-05-15T05:11:56.465Z,18.92
2018-05-15T05:12:56.630Z,19.04
2018-05-15T05:13:56.799Z,18.92
2018-05-15T05:14:56.967Z,19.16
2018-05-15T05:15:57.945Z,19.31
2018-05-15T05:16:57.365Z,19.40
2018-05-15T05:17:57.530Z,19.48
2018-05-15T05:18:57.711Z,19.48
2018-05-15T05:19:57.880Z,19.62
2018-05-15T05:20:58.108Z,19.62
2018-05-15T05:21:58.222Z,19.77
2018-05-15T05:22:58.387Z,19.83
2018-05-15T05:23:58.570Z,19.94
2018-05-15T05:24:58.741Z,19.88
2018-05-15T05:25:58.910Z,19.99
2018-05-15T05:26:59.081Z,20.08
2018-05-15T05:27:59.249Z,20.05
2018-05-15T05:28:59.431Z,20.01
2018-05-15T05:29:59.601Z,20.17
2018-05-15T05:30:59.789Z,20.31
2018-05-15T05:31:59.952Z,20.39
2018-05-15T05:33:00.110Z,20.33
2018-05-15T05:34:00.945Z,20.39
2018-05-15T05:35:00.466Z,20.36
2018-05-15T05:36:00.631Z,20.43
2018-05-15T05:37:00.801Z,20.52
2018-05-15T05:38:00.971Z,20.39
2018-05-15T05:39:01.147Z,20.47
2018-05-15T05:40:01.406Z,20.51
2018-05-15T05:41:01.491Z,20.58
2018-05-15T05:42:01.659Z,20.59
2018-05-15T05:43:02.529Z,20.69
2018-05-15T05:44:01.949Z,20.62
2018-05-15T05:45:02.129Z,20.72
2018-05-15T05:46:02.285Z,20.77
2018-05-15T05:47:02.465Z,20.79
2018-05-15T05:48:02.624Z,20.72
2018-05-15T05:49:02.813Z,20.66
2018-05-15T05:50:02.981Z,20.84
2018-05-15T05:51:03.172Z,20.84
2018-05-15T05:52:03.354Z,20.77
2018-05-15T05:53:03.500Z,20.77
2018-05-15T05:54:03.669Z,20.73
2018-05-15T05:55:03.839Z,20.70
2018-05-15T05:56:04.012Z,20.61
2018-05-15T05:57:04.184Z,20.70
2018-05-15T05:58:04.401Z,20.67
2018-05-15T05:59:04.573Z,20.76
2018-05-15T06:00:05.535Z,20.79
2018-05-15T06:01:04.956Z,20.64
2018-05-15T06:02:05.124Z,20.52
2018-05-15T06:03:05.298Z,20.47
2018-05-15T06:04:06.030Z,20.57
2018-05-15T06:05:05.575Z,20.67
2018-05-15T06:06:05.744Z,20.59
2018-05-15T06:07:06.001Z,20.59
2018-05-15T06:08:06.129Z,20.73
2018-05-15T06:09:06.301Z,20.80
2018-05-15T06:10:06.469Z,20.77
2018-05-15T06:11:06.640Z,20.91
2018-05-15T06:12:06.805Z,21.07
2018-05-15T06:13:06.983Z,21.17
2018-05-15T06:14:07.153Z,21.22
2018-05-15T06:15:07.323Z,21.07
2018-05-15T06:16:07.498Z,21.32
2018-05-15T06:17:07.669Z,21.34
2018-05-15T06:18:07.843Z,21.47
2018-05-15T06:19:08.537Z,21.56
2018-05-15T06:20:08.209Z,21.65
2018-05-15T06:21:08.393Z,21.68
2018-05-15T06:22:08.543Z,21.80
2018-05-15T06:23:08.717Z,21.86
2018-05-15T06:24:08.885Z,21.77
2018-05-15T06:25:09.057Z,21.72
2018-05-15T06:26:09.226Z,21.88
2018-05-15T06:27:09.410Z,21.86
2018-05-15T06:28:09.563Z,21.98
2018-05-15T06:29:09.736Z,22.09
2018-05-15T06:30:09.909Z,22.03
2018-05-15T06:31:10.097Z,22.09
2018-05-15T06:32:10.257Z,22.05
2018-05-15T06:33:10.426Z,22.00
2018-05-15T06:34:10.615Z,22.07
2018-05-15T06:35:10.783Z,22.15
2018-05-15T06:36:10.961Z,22.20
2018-05-15T06:37:11.129Z,22.17
2018-05-15T06:38:11.298Z,22.30
2018-05-15T06:39:11.517Z,22.37
2018-05-15T06:40:11.640Z,22.31
2018-05-15T06:41:11.807Z,22.30
2018-05-15T06:42:11.979Z,22.21
2018-05-15T06:43:12.149Z,22.18
2018-05-15T06:44:12.319Z,21.80
2018-05-15T06:45:12.493Z,21.96
2018-05-15T06:46:12.660Z,22.05
2018-05-15T06:47:12.829Z,22.12
2018-05-15T06:48:13.000Z,22.31
2018-05-15T06:49:13.178Z,22.36
2018-05-15T06:50:13.345Z,22.49
2018-05-15T06:51:13.523Z,22.46
2018-05-15T06:52:13.701Z,22.42
2018-05-15T06:53:13.875Z,22.52
2018-05-15T06:54:14.045Z,22.67
2018-05-15T06:55:14.229Z,22.76
2018-05-15T06:56:14.415Z,22.83
2018-05-15T06:57:14.581Z,23.12
2018-05-15T06:58:14.756Z,23.10
2018-05-15T06:59:14.930Z,23.32
2018-05-15T07:00:15.097Z,23.54
2018-05-15T07:01:15.277Z,23.68
2018-05-15T07:02:15.467Z,23.73
2018-05-15T07:03:15.623Z,23.73
2018-05-15T07:04:15.797Z,23.66
2018-05-15T07:05:15.967Z,23.63
2018-05-15T07:06:16.141Z,23.69
2018-05-15T07:07:16.306Z,23.63
2018-05-15T07:08:16.518Z,23.73
2018-05-15T07:09:16.689Z,23.84
2018-05-15T07:10:16.860Z,23.83
2018-05-15T07:11:17.032Z,23.70
2018-05-15T07:12:17.218Z,23.69
2018-05-15T07:13:17.386Z,23.60
2018-05-15T07:14:17.555Z,23.61
2018-05-15T07:15:17.732Z,23.68
2018-05-15T07:16:17.901Z,23.66
2018-05-15T07:17:18.074Z,23.72
2018-05-15T07:18:18.249Z,23.60
2018-05-15T07:19:18.424Z,23.63
2018-05-15T07:20:18.607Z,23.60
2018-05-15T07:21:18.772Z,23.65
2018-05-15T07:22:18.950Z,23.70
2018-05-15T07:23:19.121Z,23.80
2018-05-15T07:24:19.292Z,23.63
2018-05-15T07:25:19.484Z,23.68
2018-05-15T07:26:19.631Z,23.76
2018-05-15T07:27:19.854Z,23.73
2018-05-15T07:28:20.004Z,23.87
2018-05-15T07:29:20.181Z,24.05
2018-05-15T07:30:20.426Z,24.12
2018-05-15T07:31:21.485Z,24.20
2018-05-15T07:32:20.759Z,24.31
2018-05-15T07:33:21.009Z,24.25
2018-05-15T07:34:21.183Z,24.28
2018-05-15T07:35:21.400Z,24.09
2018-05-15T07:36:21.542Z,24.20
2018-05-15T07:37:21.710Z,24.35
2018-05-15T07:38:21.885Z,24.35
2018-05-15T07:39:22.062Z,24.34
2018-05-15T07:40:23.067Z,24.43
2018-05-15T07:41:22.343Z,24.49
2018-05-15T07:42:22.517Z,24.57
2018-05-15T07:43:22.688Z,24.64
2018-05-15T07:44:22.863Z,24.68
2018-05-15T07:45:23.031Z,24.61
2018-05-15T07:46:23.207Z,24.64
2018-05-15T07:47:23.377Z,24.73
2018-05-15T07:48:23.546Z,24.65
2018-05-15T07:49:23.727Z,24.81
2018-05-15T07:50:23.909Z,24.80
2018-05-15T07:51:24.107Z,24.68
2018-05-15T07:52:24.287Z,24.76
2018-05-15T07:53:24.465Z,24.87
2018-05-15T07:54:24.638Z,24.95
2018-05-15T07:55:24.815Z,25.09
2018-05-15T07:56:24.992Z,25.10
2018-05-15T07:57:25.165Z,25.33
2018-05-15T07:58:25.344Z,25.42
2018-05-15T07:59:25.524Z,25.51
2018-05-15T08:00:26.554Z,25.65
2018-05-15T08:01:25.856Z,25.69
2018-05-15T08:02:26.032Z,25.72
2018-05-15T08:03:26.209Z,25.58
2018-05-15T08:04:26.998Z,25.79
2018-05-15T08:05:26.559Z,25.64
2018-05-15T08:06:26.727Z,25.87
2018-05-15T08:07:26.922Z,25.85
2018-05-15T08:08:27.068Z,25.79
2018-05-15T08:09:27.981Z,25.57
2018-05-15T08:10:27.465Z,25.52
2018-05-15T08:11:27.659Z,25.51
2018-05-15T08:12:27.829Z,25.69
2018-05-15T08:13:28.004Z,25.69
2018-05-15T08:14:28.183Z,25.46
2018-05-15T08:15:28.359Z,25.64
2018-05-15T08:16:28.536Z,25.57
2018-05-15T08:17:28.712Z,25.58
2018-05-15T08:18:28.889Z,25.42
2018-05-15T08:19:29.065Z,25.27
2018-05-15T08:20:29.243Z,25.10
2018-05-15T08:21:29.421Z,25.24
2018-05-15T08:22:29.630Z,25.18
2018-05-15T08:23:29.762Z,25.25
2018-05-15T08:24:29.938Z,25.36
2018-05-15T08:25:30.111Z,25.40
2018-05-15T08:26:30.355Z,25.61
2018-05-15T08:27:30.450Z,25.45
2018-05-15T08:28:30.637Z,25.39
2018-05-15T08:29:30.793Z,25.40
2018-05-15T08:30:31.068Z,25.36
2018-05-15T08:31:31.116Z,25.13
2018-05-15T08:32:31.286Z,25.46
2018-05-15T08:33:31.990Z,25.64
2018-05-15T08:34:31.624Z,25.60
2018-05-15T08:35:31.799Z,25.51
2018-05-15T08:36:31.972Z,25.79
2018-05-15T08:37:32.246Z,25.85
2018-05-15T08:38:32.327Z,25.91
2018-05-15T08:39:32.504Z,26.02
2018-05-15T08:40:32.678Z,26.29
2018-05-15T08:41:32.852Z,26.30
2018-05-15T08:42:33.033Z,26.54
2018-05-15T08:43:33.218Z,26.62
2018-05-15T08:44:33.393Z,26.60
2018-05-15T08:45:33.562Z,26.57
2018-05-15T08:46:33.755Z,26.55
2018-05-15T08:47:33.912Z,26.65
2018-05-15T08:48:34.076Z,26.62
2018-05-15T08:49:34.248Z,26.75
2018-05-15T08:50:34.429Z,26.95
2018-05-15T08:51:34.686Z,27.03
2018-05-15T08:52:34.781Z,27.29
2018-05-15T08:53:34.959Z,27.36
2018-05-15T08:54:35.143Z,27.67
2018-05-15T08:55:35.316Z,27.60
2018-05-15T08:56:35.495Z,27.81
2018-05-15T08:57:35.672Z,27.87
2018-05-15T08:58:35.849Z,27.77
2018-05-15T08:59:36.025Z,27.72
2018-05-15T09:00:36.201Z,27.75
2018-05-15T09:01:36.376Z,27.93
2018-05-15T09:02:36.556Z,28.19
2018-05-15T09:03:36.730Z,28.55
2018-05-15T09:04:36.913Z,29.02
2018-05-15T09:05:37.089Z,29.28
2018-05-15T09:06:37.258Z,30.15
2018-05-15T09:07:37.438Z,31.10
2018-05-15T09:08:37.619Z,32.00
2018-05-15T09:09:37.803Z,32.85
2018-05-15T09:10:37.984Z,33.61
2018-05-15T09:11:38.161Z,33.93
2018-05-15T09:12:38.339Z,33.21
2018-05-15T09:13:38.525Z,33.81
2018-05-15T09:14:38.699Z,34.46
2018-05-15T09:15:38.880Z,34.47
2018-05-15T09:16:39.048Z,34.32
2018-05-15T09:17:42.079Z,34.72
2018-05-15T09:18:39.382Z,34.37
2018-05-15T09:19:39.566Z,34.75
2018-05-15T09:20:42.566Z,35.10
2018-05-15T09:21:39.877Z,35.72
2018-05-15T09:22:40.055Z,35.82
2018-05-15T09:23:40.237Z,36.29
2018-05-15T09:24:40.418Z,36.32
2018-05-15T09:25:40.607Z,36.44
2018-05-15T09:26:40.786Z,36.59
2018-05-15T09:27:40.979Z,36.81
2018-05-15T09:28:41.150Z,35.50
2018-05-15T09:30:34.424Z,36.73
2018-05-15T09:31:34.621Z,37.20
2018-05-15T09:32:34.796Z,37.89
2018-05-15T09:33:34.971Z,38.11
2018-05-15T09:34:35.151Z,37.97
2018-05-15T09:35:35.342Z,37.44
2018-05-15T09:36:35.523Z,36.12
2018-05-15T09:37:35.712Z,36.69
2018-05-15T09:38:35.884Z,36.90
2018-05-15T09:39:36.079Z,37.29
2018-05-15T09:40:36.257Z,37.55
2018-05-15T09:41:36.432Z,37.51
2018-05-15T09:42:36.623Z,37.13
2018-05-15T09:43:36.835Z,37.10
2018-05-15T09:44:36.992Z,36.94
2018-05-15T09:45:37.175Z,37.84
2018-05-15T09:46:37.359Z,38.37
2018-05-15T09:47:37.543Z,38.83
2018-05-15T09:48:37.730Z,38.60
2018-05-15T09:49:37.921Z,38.63
2018-05-15T09:50:38.108Z,38.87
2018-05-15T09:51:38.289Z,38.68
2018-05-15T09:52:38.475Z,38.76
2018-05-15T09:53:38.668Z,38.63
2018-05-15T09:54:38.850Z,38.88
2018-05-15T09:55:39.085Z,37.79
2018-05-15T09:56:39.269Z,36.78
2018-05-15T09:57:39.449Z,37.06
2018-05-15T09:58:39.642Z,37.36
2018-05-15T09:59:39.829Z,37.10
2018-05-15T10:00:40.009Z,37.03
2018-05-15T10:01:40.196Z,37.27
2018-05-15T10:02:40.383Z,37.24
2018-05-15T10:03:40.569Z,36.49
2018-05-15T10:04:40.745Z,35.80
2018-05-15T10:05:40.942Z,35.80
2018-05-15T10:06:41.154Z,35.96
2018-05-15T10:07:41.397Z,35.80
2018-05-15T10:08:41.514Z,35.63
2018-05-15T10:09:41.702Z,36.46
2018-05-15T10:10:41.889Z,36.94
2018-05-15T10:11:42.068Z,36.76
2018-05-15T10:12:42.255Z,37.82
2018-05-15T10:13:42.437Z,38.15
2018-05-15T10:14:42.621Z,37.93
2018-05-15T10:15:42.809Z,37.89
2018-05-15T10:16:43.002Z,38.34
2018-05-15T10:17:43.187Z,39.13
2018-05-15T10:18:43.368Z,39.50
2018-05-15T10:19:43.554Z,38.88
2018-05-15T10:20:43.799Z,37.86
2018-05-15T10:21:43.921Z,37.24
2018-05-15T10:22:44.112Z,36.09
2018-05-15T10:23:44.291Z,35.41
2018-05-15T10:24:44.476Z,34.65
2018-05-15T10:25:44.672Z,34.58
2018-05-15T10:26:44.860Z,34.61
2018-05-15T10:27:45.059Z,35.03
2018-05-15T10:28:45.237Z,35.47
2018-05-15T10:29:45.510Z,35.34
2018-05-15T10:30:45.612Z,34.54
2018-05-15T10:31:45.788Z,33.97
2018-05-15T10:32:46.398Z,33.68
2018-05-15T10:33:46.204Z,33.75
2018-05-15T10:34:46.389Z,34.08
2018-05-15T10:35:46.566Z,34.72
2018-05-15T10:36:46.761Z,36.29
2018-05-15T10:37:46.937Z,37.60
2018-05-15T10:38:47.123Z,37.70
2018-05-15T10:39:47.303Z,36.95
2018-05-15T10:40:47.485Z,36.47
2018-05-15T10:41:47.670Z,35.71
2018-05-15T10:42:47.845Z,34.66
2018-05-15T10:43:48.084Z,34.12
2018-05-15T10:44:48.229Z,34.00
2018-05-15T10:45:48.406Z,33.71
2018-05-15T10:46:48.593Z,33.47
2018-05-15T10:47:48.771Z,32.92
2018-05-15T10:48:48.960Z,32.47
2018-05-15T10:49:49.146Z,31.91
2018-05-15T10:50:49.393Z,31.91
2018-05-15T10:51:49.522Z,31.68
2018-05-15T10:52:49.699Z,31.25
2018-05-15T10:53:49.878Z,31.54
2018-05-15T10:54:50.477Z,31.29
2018-05-15T10:55:50.287Z,31.36
2018-05-15T10:56:50.474Z,32.01
2018-05-15T10:57:50.653Z,32.35
2018-05-15T10:58:50.836Z,33.98
2018-05-15T10:59:51.015Z,35.21
2018-05-15T11:00:51.198Z,35.81
2018-05-15T11:01:51.380Z,35.26
2018-05-15T11:02:51.559Z,34.72
2018-05-15T11:03:51.739Z,34.64
2018-05-15T11:04:51.930Z,33.97
2018-05-15T11:05:52.125Z,35.03
2018-05-15T11:06:52.286Z,35.09
2018-05-15T11:07:52.454Z,34.52
2018-05-15T11:08:52.652Z,33.94
2018-05-15T11:09:52.822Z,33.88
2018-05-15T11:10:53.023Z,34.35
2018-05-15T11:11:53.202Z,34.35
2018-05-15T11:12:53.438Z,33.82
2018-05-15T11:13:53.572Z,32.94
2018-05-15T11:14:53.748Z,32.37
2018-05-15T11:15:53.935Z,32.01
2018-05-15T11:16:54.120Z,31.75
2018-05-15T11:17:54.293Z,31.32
2018-05-15T11:18:54.478Z,31.17
2018-05-15T11:19:54.732Z,31.06
2018-05-15T11:20:54.844Z,30.76
2018-05-15T11:21:55.028Z,30.61
2018-05-15T11:22:55.203Z,30.34
2018-05-15T11:23:55.378Z,30.11
2018-05-15T11:24:55.560Z,29.61
2018-05-15T11:25:55.739Z,29.61
2018-05-15T11:26:55.918Z,29.26
2018-05-15T11:27:56.093Z,29.14
2018-05-15T11:28:56.272Z,29.00
2018-05-15T11:29:56.458Z,28.92
2018-05-15T11:30:56.631Z,28.68
2018-05-15T11:31:56.808Z,28.70
2018-05-15T11:32:56.989Z,28.73
2018-05-15T11:33:57.173Z,28.43
2018-05-15T11:34:57.348Z,28.46
2018-05-15T11:35:57.614Z,28.33
2018-05-15T11:36:57.701Z,28.21
2018-05-15T11:37:57.877Z,27.97
2018-05-15T11:38:58.053Z,27.93
2018-05-15T11:39:58.226Z,27.84
2018-05-15T11:40:58.411Z,27.50
2018-05-15T11:41:58.587Z,27.25
2018-05-15T11:42:58.769Z,26.94
2018-05-15T11:43:58.981Z,26.76
2018-05-15T11:44:59.163Z,26.57
2018-05-15T11:45:59.341Z,26.33
2018-05-15T11:46:59.531Z,25.98
2018-05-15T11:47:59.849Z,26.01
2018-05-15T11:49:00.401Z,25.99
2018-05-15T11:50:53.806Z,25.82
2018-05-15T11:51:54.183Z,25.54
2018-05-15T11:52:54.128Z,25.50
2018-05-15T11:53:53.704Z,25.15
2018-05-15T11:54:53.877Z,25.10
2018-05-15T11:55:54.212Z,25.13
2018-05-15T11:56:54.256Z,24.96
2018-05-15T11:57:54.448Z,25.10
2018-05-15T11:58:54.601Z,25.23
2018-05-15T11:59:54.840Z,25.51
2018-05-15T12:00:54.956Z,25.43
2018-05-15T12:01:55.139Z,25.57
2018-05-15T12:02:55.309Z,25.70
2018-05-15T12:03:55.509Z,25.85
2018-05-15T12:04:55.653Z,26.26
2018-05-15T12:05:56.636Z,28.25
2018-05-15T12:06:56.027Z,30.34
2018-05-15T12:07:56.203Z,31.85
2018-05-15T12:08:56.428Z,32.55
2018-05-15T12:09:56.606Z,31.62
2018-05-15T12:10:56.780Z,32.21
2018-05-15T12:11:56.973Z,33.06
2018-05-15T12:12:57.202Z,33.15
2018-05-15T12:13:57.328Z,32.11
2018-05-15T12:14:57.512Z,31.50
2018-05-15T12:15:57.694Z,31.20
2018-05-15T12:16:57.870Z,30.91
2018-05-15T12:17:58.057Z,30.45
2018-05-15T12:18:58.239Z,29.85
2018-05-15T12:19:58.787Z,29.61
2018-05-15T12:20:58.602Z,29.31
2018-05-15T12:21:58.784Z,29.09
2018-05-15T12:22:58.966Z,28.09
2018-05-15T12:23:59.142Z,27.96
2018-05-15T12:24:59.327Z,27.96
2018-05-15T12:25:59.575Z,27.90
2018-05-15T12:26:59.681Z,27.82
2018-05-15T12:27:59.956Z,27.82
2018-05-15T12:29:00.025Z,27.79
2018-05-15T12:30:00.214Z,27.51
2018-05-15T12:31:00.405Z,27.22
2018-05-15T12:32:00.573Z,27.19
2018-05-15T12:33:00.760Z,27.00
2018-05-15T12:34:00.934Z,26.75
2018-05-15T12:35:01.105Z,26.55
2018-05-15T12:36:01.295Z,26.47
2018-05-15T12:37:01.473Z,26.32
2018-05-15T12:38:02.631Z,26.20
2018-05-15T12:39:01.825Z,26.33
2018-05-15T12:40:55.094Z,26.50
2018-05-15T12:41:55.498Z,26.57
2018-05-15T12:42:55.452Z,27.00
2018-05-15T12:43:55.634Z,27.41
2018-05-15T12:44:55.796Z,27.59
2018-05-15T12:45:55.980Z,27.94
2018-05-15T12:46:56.170Z,28.52
2018-05-15T12:47:56.421Z,28.92
2018-05-15T12:48:57.062Z,29.27
2018-05-15T12:49:56.749Z,29.36
2018-05-15T12:50:56.948Z,29.52
2018-05-15T12:51:57.120Z,29.36
2018-05-15T12:52:57.293Z,29.49
2018-05-15T12:53:57.578Z,29.51
2018-05-15T12:54:57.661Z,29.63
2018-05-15T12:55:57.831Z,29.87
2018-05-15T12:56:58.012Z,29.92